Time;durP1;ratioP1;P1;durP2;ratioP2;P2;SDS_P1;SDS_P2;PMS_P1;PMS_P2;Temp;Humidity;BMP_temperature;BMP_pressure;BME280_temperature;BME280_humidity;BME280_pressure;Samples;Min_cycle;Max_cycle;Signal;HPM_P1;HPM_P2
2022/05/17 00:01:47;;;;;;;12.50;4.53;;;;;;;14.49;75.96;101835.38;6408724;23;20005;-84
2022/05/17 00:04:19;;;;;;;7.50;3.63;;;;;;;14.55;76.25;101831.78;6409809;23;20006;-85
2022/05/17 00:06:51;;;;;;;;;;;;;;;14.53;73.92;101829.19;6411816;23;20377;-85
2022/05/17 00:09:22;;;;;;;11.00;4.13;;;;;;;14.51;75.91;101838.84;6409550;23;19908;-84
2022/05/17 00:11:56;;;;;;;13.60;4.57;;;;;;;14.49;77.37;101842.34;6408075;23;20014;-84
2022/05/17 00:14:28;;;;;;;9.02;3.97;;;;;;;14.51;76.62;101828.34;6408177;23;20015;-83
2022/05/17 00:17:00;;;;;;;9.68;4.18;;;;;;;14.46;77.20;101830.16;6409785;23;20014;-84
2022/05/17 00:19:32;;;;;;;11.48;4.35;;;;;;;14.50;77.43;101825.72;6409966;23;20005;-80
2022/05/17 00:22:03;;;;;;;11.52;4.28;;;;;;;14.43;77.45;101822.31;6409413;23;20009;-84
2022/05/17 00:24:35;;;;;;;8.93;4.50;;;;;;;14.50;77.81;101825.72;6408833;23;20024;-83
2022/05/17 00:27:08;;;;;;;18.03;4.83;;;;;;;14.47;78.04;101820.53;6410257;23;20266;-84
2022/05/17 00:29:39;;;;;;;10.05;3.78;;;;;;;14.46;78.00;101817.03;6409976;23;20055;-83
2022/05/17 00:32:12;;;;;;;12.13;4.47;;;;;;;14.59;77.65;101815.13;6408788;23;20455;-84
2022/05/17 00:34:46;;;;;;;12.27;3.95;;;;;;;14.57;77.63;101809.91;6408578;23;20068;-84
2022/05/17 00:37:19;;;;;;;11.43;4.28;;;;;;;14.67;77.22;101810.69;6382235;23;20432;-82
2022/05/17 00:39:51;;;;;;;17.27;4.50;;;;;;;14.57;77.18;101812.53;6408949;23;20442;-81
2022/05/17 00:42:22;;;;;;;10.60;4.27;;;;;;;14.70;77.37;101815.00;6407693;23;20018;-82
2022/05/17 00:44:54;;;;;;;12.80;4.90;;;;;;;14.61;77.37;101815.16;6405203;23;20047;-85
2022/05/17 00:47:27;;;;;;;10.97;4.87;;;;;;;14.69;77.74;101810.66;6407145;23;20333;-78
2022/05/17 00:50:12;;;;;;;12.27;4.95;;;;;;;14.69;77.36;101810.66;6408557;23;20013;-75
2022/05/17 00:52:53;;;;;;;13.45;4.40;;;;;;;14.71;77.65;101812.34;6408007;23;20425;-84
2022/05/17 00:55:53;;;;;;;11.00;4.57;;;;;;;14.73;77.16;101809.72;6408561;23;20427;-84
2022/05/17 00:58:40;;;;;;;11.60;4.43;;;;;;;14.67;77.58;101807.19;6408443;23;20060;-84
2022/05/17 01:01:28;;;;;;;10.68;5.03;;;;;;;14.61;77.89;101808.13;6408293;23;20423;-83
2022/05/17 01:04:10;;;;;;;13.32;5.40;;;;;;;14.55;77.98;101802.94;6407925;23;20005;-82
2022/05/17 01:06:49;;;;;;;9.88;4.15;;;;;;;14.45;78.30;101793.44;6408579;23;20028;-83
2022/05/17 01:09:22;;;;;;;15.27;4.85;;;;;;;14.51;78.61;101803.88;6414641;23;20335;-84
2022/05/17 01:11:54;;;;;;;12.05;4.95;;;;;;;14.40;79.03;101801.38;6410583;23;20085;-83
2022/05/17 01:17:16;;;;;;;9.30;4.28;;;;;;;14.33;79.03;101803.22;6405122;23;20452;-85
2022/05/17 01:19:47;;;;;;;20.70;6.10;;;;;;;14.47;78.61;101799.53;6404893;23;20021;-84
2022/05/17 01:22:19;;;;;;;12.93;4.03;;;;;;;14.36;79.21;101802.28;6404050;23;20016;-84
2022/05/17 01:24:52;;;;;;;9.52;4.20;;;;;;;14.35;78.83;101795.31;6404088;23;20434;-83
2022/05/17 01:27:43;;;;;;;15.90;4.80;;;;;;;14.30;79.29;101791.91;6404293;23;20004;-85
2022/05/17 01:30:19;;;;;;;11.57;4.53;;;;;;;14.32;79.32;101792.75;6405346;23;20009;-84
2022/05/17 01:32:50;;;;;;;8.30;4.10;;;;;;;14.40;78.64;101791.75;6405174;23;20032;-85
2022/05/17 01:35:22;;;;;;;10.90;4.73;;;;;;;14.38;79.35;101803.16;6406015;23;20474;-86
2022/05/17 01:37:55;;;;;;;9.33;4.40;;;;;;;14.50;79.17;101799.50;6405163;23;20013;-84
2022/05/17 01:40:27;;;;;;;12.75;5.05;;;;;;;14.57;78.34;101799.41;6405656;23;20415;-86
2022/05/17 01:42:58;;;;;;;16.00;4.73;;;;;;;14.64;78.87;101796.75;6405916;23;20032;-78
2022/05/17 01:45:30;;;;;;;14.20;4.77;;;;;;;14.69;79.06;101803.66;6405920;23;20408;-85
2022/05/17 01:48:02;;;;;;;14.77;4.72;;;;;;;14.74;78.42;101798.34;6379648;23;20010;-80
2022/05/17 01:50:33;;;;;;;12.57;4.63;;;;;;;14.70;78.11;101796.63;6405705;23;20012;-83
2022/05/17 01:53:05;;;;;;;18.17;6.00;;;;;;;14.69;77.95;101800.16;6405565;23;20453;-83
2022/05/17 01:55:37;;;;;;;13.13;5.07;;;;;;;14.75;77.58;101805.34;6406830;23;20241;-86
2022/05/17 01:58:08;;;;;;;12.57;4.90;;;;;;;14.69;77.76;101808.91;6407034;23;20012;-84
2022/05/17 02:00:39;;;;;;;16.83;5.57;;;;;;;14.69;77.78;101801.03;6407012;23;20001;-86
2022/05/17 02:03:11;;;;;;;12.33;5.27;;;;;;;14.71;78.10;101795.75;6408496;23;20065;-86
2022/05/17 02:05:42;;;;;;;12.67;4.70;;;;;;;14.64;78.15;101802.84;6408841;23;20006;-82
2022/05/17 02:08:13;;;;;;;11.00;4.87;;;;;;;14.64;78.24;101802.00;6408190;23;20084;-86
2022/05/17 02:10:45;;;;;;;11.07;4.43;;;;;;;14.72;78.20;101802.75;6411697;23;20013;-86
2022/05/17 02:13:18;;;;;;;11.50;4.68;;;;;;;14.79;78.36;101799.13;6423448;23;20014;-81
2022/05/17 02:15:49;;;;;;;14.13;4.32;;;;;;;14.74;78.14;101804.44;6424071;23;20028;-82
2022/05/17 02:18:20;;;;;;;12.57;4.33;;;;;;;14.85;77.52;101808.69;6422991;23;20009;-84
2022/05/17 02:20:55;;;;;;;13.87;4.57;;;;;;;14.84;78.29;101804.31;6420211;23;20016;-83
2022/05/17 02:23:27;;;;;;;14.50;4.82;;;;;;;14.93;77.25;101799.81;6422199;23;20009;-84
2022/05/17 02:25:58;;;;;;;13.10;5.35;;;;;;;14.98;77.03;101798.88;6422040;23;20022;-85
2022/05/17 02:28:32;;;;;;;9.10;5.03;;;;;;;14.93;77.78;101801.56;6406835;23;20047;-83
2022/05/17 02:31:03;;;;;;;11.63;5.43;;;;;;;14.89;77.76;101794.63;6405656;23;20013;-85
2022/05/17 02:33:34;;;;;;;13.10;4.80;;;;;;;14.93;77.71;101799.81;6406268;23;20463;-86
2022/05/17 02:36:06;;;;;;;13.77;4.67;;;;;;;14.97;77.98;101799.75;6406342;23;20095;-85
2022/05/17 02:38:37;;;;;;;11.37;4.57;;;;;;;14.95;78.19;101810.28;6405668;23;20420;-85
2022/05/17 02:41:10;;;;;;;11.00;4.80;;;;;;;14.94;77.96;101806.81;6405913;23;20017;-85
2022/05/17 02:43:41;;;;;;;13.00;4.57;;;;;;;14.92;77.49;101808.59;6405346;23;20041;-82
2022/05/17 02:46:13;;;;;;;10.30;4.77;;;;;;;14.80;78.17;101814.00;6405720;23;20012;-85
2022/05/17 02:48:45;;;;;;;16.20;4.80;;;;;;;14.79;78.44;101817.50;6405283;23;20323;-85
2022/05/17 02:51:18;;;;;;;11.23;4.60;;;;;;;14.73;79.19;101813.22;6405402;23;20036;-84
2022/05/17 02:53:50;;;;;;;10.80;4.25;;;;;;;14.70;79.43;101815.88;6404409;23;20096;-83
2022/05/17 02:56:21;;;;;;;13.20;4.97;;;;;;;14.64;79.75;101820.34;6406437;23;20110;-83
2022/05/17 02:58:52;;;;;;;10.57;4.40;;;;;;;14.62;79.36;101809.88;6405380;23;20065;-84
2022/05/17 03:01:24;;;;;;;9.47;4.10;;;;;;;14.55;80.26;101822.19;6406364;23;20039;-86
2022/05/17 03:03:55;;;;;;;13.40;4.00;;;;;;;14.55;80.66;101819.56;6404887;23;20100;-84
2022/05/17 03:06:27;;;;;;;13.00;4.23;;;;;;;14.52;80.44;101826.56;6405728;23;20032;-85
2022/05/17 03:08:58;;;;;;;8.43;4.57;;;;;;;14.47;80.90;101823.16;6405562;23;20013;-85
2022/05/17 03:11:30;;;;;;;15.37;5.07;;;;;;;14.38;81.26;101821.53;6406814;23;20097;-83
2022/05/17 03:14:01;;;;;;;12.97;4.57;;;;;;;14.19;81.53;101815.63;6408349;23;20013;-86
2022/05/17 03:16:33;;;;;;;10.70;5.03;;;;;;;14.14;nan;101817.44;6408519;23;20024;-84
2022/05/17 03:19:05;;;;;;;12.45;4.75;;;;;;;14.04;82.23;101829.78;6408598;23;20009;-84
2022/05/17 03:21:37;;;;;;;15.35;4.65;;;;;;;14.04;82.49;101824.53;6408123;23;20070;-84
2022/05/17 03:24:08;;;;;;;15.87;5.40;;;;;;;14.03;83.15;101820.16;6406275;23;20092;-87
2022/05/17 03:26:41;;;;;;;12.07;4.70;;;;;;;13.93;83.07;101824.63;6408316;23;20006;-85
2022/05/17 03:29:12;;;;;;;13.50;5.68;;;;;;;14.01;83.02;101821.94;6409704;23;20010;-84
2022/05/17 03:31:43;;;;;;;12.93;5.10;;;;;;;13.93;83.21;101829.00;6408845;23;20514;-79
2022/05/17 03:34:14;;;;;;;11.63;4.50;;;;;;;13.93;83.41;101824.63;6413975;23;20025;-85
2022/05/17 03:36:46;;;;;;;12.07;4.50;;;;;;;13.87;83.50;101824.69;6417141;23;20006;-79
2022/05/17 03:39:17;;;;;;;17.80;5.03;;;;;;;13.86;83.84;101823.81;6419541;23;20009;-85
2022/05/17 03:41:49;;;;;;;12.87;4.83;;;;;;;13.81;83.90;101822.13;6422204;23;20013;-86
2022/05/17 03:44:20;;;;;;;11.60;5.07;;;;;;;13.74;83.94;101828.31;6432400;23;20041;-84
2022/05/17 03:46:51;;;;;;;9.13;5.07;;;;;;;13.79;84.41;101831.75;6432287;23;20009;-83
2022/05/17 03:49:23;;;;;;;10.70;4.37;;;;;;;13.78;84.25;101830.00;6416819;23;20010;-84
2022/05/17 03:51:54;;;;;;;10.87;5.27;;;;;;;13.81;84.79;101828.25;6412572;23;20009;-85
2022/05/17 03:54:26;;;;;;;10.33;4.70;;;;;;;13.81;84.94;101825.63;6412234;23;20036;-85
2022/05/17 03:56:57;;;;;;;11.07;5.63;;;;;;;13.83;84.99;101825.63;6414987;23;20013;-85
2022/05/17 03:59:28;;;;;;;17.90;5.37;;;;;;;13.72;84.56;101828.31;6410765;23;20056;-86
2022/05/17 04:02:00;;;;;;;15.67;5.07;;;;;;;13.76;84.42;101840.50;6410562;23;20447;-86
2022/05/17 04:04:31;;;;;;;14.60;5.27;;;;;;;13.84;84.71;101825.56;6408516;23;20033;-85
2022/05/17 04:07:03;;;;;;;14.20;5.00;;;;;;;13.81;85.38;101823.00;6383075;23;20020;-86
2022/05/17 04:09:34;;;;;;;12.57;5.10;;;;;;;13.89;85.11;101833.38;6408392;23;20113;-85
2022/05/17 04:12:06;;;;;;;11.97;4.80;;;;;;;13.90;85.44;101824.66;6406685;23;19997;-84
2022/05/17 04:14:37;;;;;;;12.53;5.27;;;;;;;13.97;85.33;101830.69;6380642;23;20006;-86
2022/05/17 04:17:09;;;;;;;12.00;5.30;;;;;;;14.04;85.29;101835.88;6407223;23;20362;-82
2022/05/17 04:19:40;;;;;;;13.10;5.43;;;;;;;14.12;85.21;101832.28;6406339;23;20080;-85
2022/05/17 04:22:12;;;;;;;13.33;4.97;;;;;;;14.07;85.12;101841.97;6405678;23;20020;-83
2022/05/17 04:24:43;;;;;;;14.47;5.67;;;;;;;14.13;84.62;101847.16;6353627;23;20021;-84
2022/05/17 04:27:15;;;;;;;14.93;5.00;;;;;;;14.21;84.29;101837.44;6404580;23;20032;-83
2022/05/17 04:29:46;;;;;;;13.03;5.10;;;;;;;14.31;84.17;101843.44;6405392;23;20005;-83
2022/05/17 04:32:18;;;;;;;12.63;4.80;;;;;;;14.40;84.18;101852.06;6404748;23;20070;-81
2022/05/17 04:34:49;;;;;;;9.57;4.40;;;;;;;14.39;84.56;101839.88;6404767;23;20041;-83
2022/05/17 04:37:22;;;;;;;9.00;4.10;;;;;;;14.45;84.37;101845.91;6403835;23;20012;-83
2022/05/17 04:39:53;;;;;;;10.93;4.65;;;;;;;14.53;84.20;101852.78;6404148;23;20009;-84
2022/05/17 04:42:25;;;;;;;8.57;4.37;;;;;;;14.57;83.88;101846.63;6405775;23;20442;-82
2022/05/17 04:44:57;;;;;;;12.27;4.47;;;;;;;14.64;83.70;101839.59;6404633;23;20001;-82
2022/05/17 04:47:29;;;;;;;11.77;4.63;;;;;;;14.78;84.08;101844.66;6404419;23;20009;-82
2022/05/17 04:50:01;;;;;;;13.52;5.50;;;;;;;14.80;82.99;101849.91;6404348;23;20086;-81
2022/05/17 04:52:32;;;;;;;15.73;5.30;;;;;;;14.83;82.37;101847.19;6404417;23;20037;-82
2022/05/17 04:55:06;;;;;;;20.90;5.47;;;;;;;14.94;81.20;101853.16;6406168;23;20020;-83
2022/05/17 04:57:38;;;;;;;12.27;5.38;;;;;;;15.01;80.71;101851.34;6404666;23;20037;-81
2022/05/17 05:00:17;;;;;;;12.00;5.27;;;;;;;15.07;81.45;101857.38;6403561;23;20055;-80
2022/05/17 05:02:50;;;;;;;15.25;6.07;;;;;;;15.20;80.85;101860.69;6404040;23;20017;-80
2022/05/17 05:05:23;;;;;;;16.35;5.90;;;;;;;15.34;81.93;101859.59;6403312;23;20006;-83
2022/05/17 05:07:54;;;;;;;11.07;5.00;;;;;;;15.39;82.18;101863.03;6404236;23;20053;-82
2022/05/17 05:10:26;;;;;;;12.93;5.73;;;;;;;15.48;81.71;101865.53;6404201;23;20005;-81
2022/05/17 05:12:58;;;;;;;13.48;4.60;;;;;;;15.47;81.84;101867.28;6403757;23;20006;-81
2022/05/17 05:15:29;;;;;;;15.17;5.60;;;;;;;15.55;80.86;101871.53;6403583;23;20013;-81
2022/05/17 05:18:00;;;;;;;12.10;6.27;;;;;;;15.62;81.98;101875.81;6403476;23;20036;-84
2022/05/17 05:20:32;;;;;;;16.63;6.30;;;;;;;15.65;80.40;101874.00;6377108;23;20080;-81
2022/05/17 05:23:03;;;;;;;13.30;6.37;;;;;;;15.67;80.88;101873.97;6406086;23;20060;-82
2022/05/17 05:25:36;;;;;;;11.33;5.53;;;;;;;15.75;79.31;101887.00;6402675;23;20006;-83
2022/05/17 05:28:08;;;;;;;;;;;;;;;15.88;79.35;101880.66;6405022;23;20080;-80
2022/05/17 05:30:40;;;;;;;14.32;5.95;;;;;;;15.76;79.10;101884.38;6403542;23;20804;-83
2022/05/17 05:33:12;;;;;;;15.97;5.80;;;;;;;15.78;77.46;101881.72;6403525;23;20010;-82
2022/05/17 05:35:44;;;;;;;12.88;5.63;;;;;;;15.80;76.88;101893.94;6402644;23;20375;-82
2022/05/17 05:38:16;;;;;;;16.02;5.57;;;;;;;15.77;76.43;101893.13;6404064;23;20045;-80
2022/05/17 05:40:47;;;;;;;16.98;5.70;;;;;;;15.77;75.99;101901.88;6402457;23;20047;-81
2022/05/17 05:43:20;;;;;;;15.50;5.83;;;;;;;15.77;75.43;101904.50;6402366;23;20032;-81
2022/05/17 05:45:51;;;;;;;;;;;;;;;15.90;75.87;101901.66;6402955;23;20056;-83
2022/05/17 05:48:22;;;;;;;10.43;4.75;;;;;;;15.83;76.01;101903.53;6375789;23;19920;-82
2022/05/17 05:50:54;;;;;;;11.80;5.03;;;;;;;15.86;74.94;101903.50;6402286;23;20029;-82
2022/05/17 05:53:25;;;;;;;12.90;5.40;;;;;;;15.91;75.02;101906.91;6401841;23;20009;-83
2022/05/17 05:56:02;;;;;;;12.77;5.17;;;;;;;15.94;75.08;101906.84;6401909;23;20008;-81
2022/05/17 05:58:39;;;;;;;12.55;5.88;;;;;;;16.01;74.35;101908.47;6402288;23;20730;-80
2022/05/17 06:01:10;;;;;;;11.65;5.75;;;;;;;16.01;74.32;101900.56;6402533;23;20005;-80
2022/05/17 06:03:42;;;;;;;10.63;5.40;;;;;;;16.09;75.22;101908.34;6401799;23;20009;-81
2022/05/17 06:06:14;;;;;;;9.83;5.20;;;;;;;16.14;75.52;101903.00;6402531;23;20709;-83
2022/05/17 06:08:46;;;;;;;14.55;5.13;;;;;;;16.23;73.94;101902.84;6401938;23;20020;-80
2022/05/17 06:11:19;;;;;;;16.60;5.93;;;;;;;16.19;74.64;101902.00;6402215;23;20400;-83
2022/05/17 06:13:50;;;;;;;13.40;5.82;;;;;;;16.24;75.45;101901.91;6401779;23;20114;-81
2022/05/17 06:16:21;;;;;;;10.10;5.20;;;;;;;16.28;75.09;101895.72;6401450;23;20417;-80
2022/05/17 06:18:53;;;;;;;15.33;5.70;;;;;;;16.31;74.48;101903.56;6401744;23;20064;-81
2022/05/17 06:21:24;;;;;;;14.93;5.50;;;;;;;16.35;74.53;101907.00;6403114;23;20052;-81
2022/05/17 06:23:55;;;;;;;15.90;5.10;;;;;;;16.40;73.92;101908.66;6404214;23;20029;-81
2022/05/17 06:26:27;;;;;;;14.43;5.77;;;;;;;16.40;73.31;101907.75;6402599;23;20001;-81
2022/05/17 06:28:58;;;;;;;11.97;6.20;;;;;;;16.40;73.17;101906.03;6401897;23;20009;-81
2022/05/17 06:31:30;;;;;;;11.23;5.73;;;;;;;16.36;73.21;101909.59;6402123;23;20032;-81
2022/05/17 06:34:02;;;;;;;13.27;5.72;;;;;;;16.37;73.97;101903.44;6402216;23;20245;-80
2022/05/17 06:36:33;;;;;;;15.23;5.37;;;;;;;16.46;73.36;101906.78;6401717;23;20021;-80
2022/05/17 06:39:08;;;;;;;14.70;5.20;;;;;;;16.51;72.72;101912.84;6376159;23;20048;-80
2022/05/17 06:41:40;;;;;;;17.70;5.93;;;;;;;16.55;73.71;101920.63;6402293;23;20118;-80
2022/05/17 06:44:11;;;;;;;22.13;6.33;;;;;;;16.62;74.04;101910.84;6401654;23;20439;-82
2022/05/17 06:46:43;;;;;;;15.10;5.00;;;;;;;16.67;72.87;101922.16;6402527;23;20409;-81
2022/05/17 06:49:14;;;;;;;17.50;5.17;;;;;;;16.69;71.03;101920.34;6404246;23;20014;-81
2022/05/17 06:51:46;;;;;;;17.30;5.53;;;;;;;16.62;72.29;101921.38;6402910;23;20153;-82
2022/05/17 06:54:18;;;;;;;17.20;5.60;;;;;;;16.67;71.99;101918.66;6404169;23;20443;-82
2022/05/17 06:56:49;;;;;;;15.48;6.07;;;;;;;16.67;72.83;101927.41;6404483;23;20435;-79
2022/05/17 06:59:22;;;;;;;17.50;7.23;;;;;;;16.74;71.81;101921.16;6403293;23;20025;-83
2022/05/17 07:01:54;;;;;;;15.27;6.80;;;;;;;16.72;73.53;101928.19;6403537;23;20020;-81
2022/05/17 07:04:29;;;;;;;13.23;7.00;;;;;;;16.71;74.67;101931.72;6404274;23;20025;-82
2022/05/17 07:07:01;;;;;;;13.77;6.35;;;;;;;16.72;75.33;101935.22;6375980;23;20005;-82
2022/05/17 07:09:33;;;;;;;11.25;5.32;;;;;;;16.71;76.42;101933.47;6404080;23;20028;-82
2022/05/17 07:14:55;;;;;;;11.30;6.25;;;;;;;16.73;78.46;101935.19;6403249;23;20021;-82
2022/05/17 07:17:26;;;;;;;15.90;7.00;;;;;;;16.77;78.63;101934.22;6404417;23;20392;-82
2022/05/17 07:19:58;;;;;;;17.40;6.57;;;;;;;16.80;79.50;101932.44;6405111;23;20056;-83
2022/05/17 07:22:29;;;;;;;14.77;6.87;;;;;;;16.78;79.92;101937.75;6406381;23;20088;-84
2022/05/17 07:25:00;;;;;;;14.57;7.27;;;;;;;16.84;81.85;101937.63;6404608;23;20005;-84
2022/05/17 07:27:31;;;;;;;20.67;6.80;;;;;;;16.86;81.73;101941.13;6404284;23;20254;-85
2022/05/17 07:30:12;;;;;;;19.73;6.80;;;;;;;16.83;82.26;101940.28;6404915;23;20515;-83
2022/05/17 07:32:45;;;;;;;18.48;7.78;;;;;;;16.79;83.89;101944.72;6405703;23;20033;-85
2022/05/17 07:35:17;;;;;;;17.50;7.05;;;;;;;16.87;84.20;101944.59;6406219;23;20009;-85
2022/05/17 07:37:48;;;;;;;13.53;6.57;;;;;;;16.98;83.82;101934.72;6406313;23;20085;-82
2022/05/17 07:40:19;;;;;;;19.73;8.17;;;;;;;16.92;83.57;101940.09;6405808;23;20013;-85
2022/05/17 07:42:52;;;;;;;19.53;7.73;;;;;;;17.05;84.50;101936.34;6405414;23;20013;-83
2022/05/17 07:45:24;;;;;;;;;;;;;;;17.35;81.52;101939.16;6404921;23;20009;-81
2022/05/17 07:47:55;;;;;;;12.10;7.18;;;;;;;17.15;81.20;101937.00;6404829;23;19919;-85
2022/05/17 07:50:26;;;;;;;16.33;6.80;;;;;;;17.15;82.25;101939.63;6407406;23;20081;-81
2022/05/17 07:53:04;;;;;;;12.97;6.70;;;;;;;17.21;82.39;101944.78;6407734;23;20450;-82
2022/05/17 07:55:37;;;;;;;14.18;7.07;;;;;;;17.44;84.12;101949.50;6410106;23;20006;-82
2022/05/17 07:58:09;;;;;;;22.77;7.22;;;;;;;17.47;82.72;101945.94;6410101;23;20010;-83
2022/05/17 08:00:42;;;;;;;13.82;7.28;;;;;;;17.50;83.39;101951.16;6409766;23;20006;-83
2022/05/17 08:03:16;;;;;;;22.77;7.55;;;;;;;17.60;82.48;101952.66;6407519;23;20081;-83
2022/05/17 08:05:47;;;;;;;18.73;7.10;;;;;;;17.50;82.08;101951.16;6411486;23;20450;-81
2022/05/17 08:08:19;;;;;;;18.08;7.07;;;;;;;17.57;83.67;101943.97;6410836;23;20005;-80
2022/05/17 08:10:50;;;;;;;18.27;6.73;;;;;;;17.60;83.60;101942.13;6403886;23;20009;-82
2022/05/17 08:13:23;;;;;;;18.83;7.50;;;;;;;17.68;82.35;101963.03;6404442;23;20032;-82
2022/05/17 08:15:54;;;;;;;19.83;8.05;;;;;;;17.67;80.54;101963.94;6402709;23;20017;-83
2022/05/17 08:18:26;;;;;;;15.57;8.03;;;;;;;17.79;80.31;101958.38;6403346;23;20510;-82
2022/05/17 08:20:57;;;;;;;19.57;8.13;;;;;;;18.18;81.17;101960.09;6403666;23;20005;-83
2022/05/17 08:23:28;;;;;;;16.17;8.23;;;;;;;18.30;80.08;101959.75;6403425;23;20002;-83
2022/05/17 08:28:51;;;;;;;15.63;6.47;;;;;;;18.15;77.74;101968.94;6403272;23;20045;-83
2022/05/17 08:31:23;;;;;;;16.13;7.10;;;;;;;18.14;80.06;101961.06;6405047;23;20033;-82
2022/05/17 08:33:55;;;;;;;15.20;8.35;;;;;;;18.16;78.97;101959.22;6404744;23;20036;-82
2022/05/17 08:36:26;;;;;;;14.50;7.03;;;;;;;18.22;78.91;101957.31;6406168;23;20017;-79
2022/05/17 08:38:57;;;;;;;12.83;6.80;;;;;;;18.19;79.01;101960.03;6404449;23;20100;-82
2022/05/17 08:41:38;;;;;;;20.97;7.83;;;;;;;18.33;80.61;101962.31;6406272;23;20017;-83
2022/05/17 08:44:17;;;;;;;16.67;8.68;;;;;;;18.27;79.51;101965.09;6405718;23;20005;-82
2022/05/17 08:47:11;;;;;;;19.95;7.82;;;;;;;18.49;79.26;101961.91;6404851;23;20148;-80
2022/05/17 08:50:02;;;;;;;22.17;8.43;;;;;;;18.50;77.99;101959.22;6403897;23;20081;-83
2022/05/17 08:52:36;;;;;;;19.77;6.97;;;;;;;18.51;78.79;101955.66;6405070;23;20040;-79
2022/05/17 08:55:23;;;;;;;14.88;7.30;;;;;;;18.48;78.68;101952.25;6403507;23;20009;-82
2022/05/17 08:58:25;;;;;;;19.13;8.18;;;;;;;18.51;78.57;101958.28;6403109;23;20016;-82
2022/05/17 09:01:01;;;;;;;17.42;7.65;;;;;;;18.46;78.76;101954.06;6403426;23;20009;-79
2022/05/17 09:03:42;;;;;;;16.73;8.32;;;;;;;18.64;78.55;101950.91;6403841;23;20108;-82
2022/05/17 09:06:37;;;;;;;21.98;9.80;;;;;;;18.72;79.09;101946.28;6403667;23;20063;-80
2022/05/17 09:09:47;;;;;;;21.67;9.45;;;;;;;18.98;77.32;101949.97;6403358;23;20013;-83
2022/05/17 09:12:36;;;;;;;20.15;8.73;;;;;;;19.36;73.79;101939.16;6308628;23;20370;-81
2022/05/17 09:15:09;;;;;;;16.10;9.15;;;;;;;19.49;73.30;101948.44;6308982;23;20025;-79
2022/05/17 09:17:41;;;;;;;29.05;9.05;;;;;;;19.71;71.77;101945.13;6308534;23;20094;-82
2022/05/17 09:20:15;;;;;;;22.17;8.52;;;;;;;19.88;71.58;101947.22;6316807;23;20007;-80
2022/05/17 09:22:46;;;;;;;15.73;7.35;;;;;;;19.88;70.34;101940.13;6327889;23;20054;-82
2022/05/17 09:25:22;;;;;;;13.30;7.47;;;;;;;19.92;70.01;101931.19;6327167;23;20038;-82
2022/05/17 09:27:54;;;;;;;18.08;6.30;;;;;;;19.86;67.47;101931.38;6312640;23;20017;-83
2022/05/17 09:30:33;;;;;;;11.95;5.53;;;;;;;19.84;67.57;101936.72;6310910;23;20017;-81
2022/05/17 09:33:15;;;;;;;12.25;5.90;;;;;;;19.93;66.47;101926.75;6309158;23;20152;-82
2022/05/17 09:35:52;;;;;;;13.07;4.80;;;;;;;20.01;65.55;101935.28;6308763;23;20163;-83
2022/05/17 09:38:29;;;;;;;10.13;4.25;;;;;;;20.23;63.92;101928.34;6308099;23;20131;-82
2022/05/17 09:41:05;;;;;;;8.75;4.68;;;;;;;20.62;64.60;101919.00;6308739;23;20085;-82
2022/05/17 09:43:39;;;;;;;10.93;4.65;;;;;;;21.17;64.12;101923.16;6308793;23;20011;-81
2022/05/17 09:46:27;;;;;;;11.38;5.43;;;;;;;21.32;62.82;101919.91;6308855;23;20434;-81
2022/05/17 09:54:49;;;;;;;14.88;5.63;;;;;;;24.62;54.83;101917.06;6402232;23;20018;-80
2022/05/17 09:57:23;;;;;;;9.95;5.18;;;;;;;25.12;49.37;101914.25;6402249;23;20335;-82
2022/05/17 10:00:08;;;;;;;11.55;4.93;;;;;;;24.96;50.24;101907.22;6402408;23;20037;-81
2022/05/17 10:02:49;;;;;;;8.25;4.78;;;;;;;24.94;49.83;101909.97;6402488;23;20005;-80
2022/05/17 10:05:49;;;;;;;9.73;4.43;;;;;;;25.29;49.14;101905.34;6402461;23;20458;-82
2022/05/17 10:08:20;;;;;;;14.02;5.43;;;;;;;25.07;46.71;101905.66;6401746;23;20343;-80
2022/05/17 10:11:13;;;;;;;10.27;3.80;;;;;;;25.37;48.26;101904.03;6402864;23;20012;-82
2022/05/17 10:14:21;;;;;;;12.52;4.80;;;;;;;25.33;48.29;101900.69;6403428;23;20072;-80
2022/05/17 10:17:10;;;;;;;9.45;5.00;;;;;;;24.83;49.01;101891.91;6402678;23;20048;-85
2022/05/17 10:19:59;;;;;;;9.80;4.95;;;;;;;24.91;48.96;101886.16;6402838;23;20129;-81
2022/05/17 10:22:37;;;;;;;9.95;5.25;;;;;;;24.69;49.46;101883.81;6404160;23;20013;-79
2022/05/17 10:25:21;;;;;;;11.43;5.22;;;;;;;24.69;48.68;101882.00;6405019;23;20029;-80
2022/05/17 10:27:57;;;;;;;10.48;5.07;;;;;;;24.92;48.06;101888.72;6404922;23;20027;-81
2022/05/17 10:30:32;;;;;;;12.05;5.15;;;;;;;24.95;49.38;101879.69;6406031;23;20009;-81
2022/05/17 10:33:15;;;;;;;7.97;4.28;;;;;;;24.88;47.77;101879.16;6405880;23;20047;-79
2022/05/17 10:35:50;;;;;;;11.73;4.63;;;;;;;24.69;46.00;101875.81;6404026;23;20432;-80
2022/05/17 10:38:26;;;;;;;11.82;5.53;;;;;;;24.74;47.02;101879.06;6404845;23;20434;-80
2022/05/17 10:40:57;;;;;;;13.77;4.85;;;;;;;25.26;45.88;101873.47;6404814;23;20085;-81
2022/05/17 10:43:32;;;;;;;11.07;5.40;;;;;;;25.54;45.93;101876.38;6404312;23;20016;-79
2022/05/17 10:46:04;;;;;;;8.05;4.50;;;;;;;26.32;44.32;101878.81;6403498;23;20012;-79
2022/05/17 10:48:44;;;;;;;9.27;4.25;;;;;;;26.42;42.23;101868.41;6403818;23;20010;-81
2022/05/17 10:51:28;;;;;;;11.30;4.18;;;;;;;26.52;43.05;101864.22;6404266;23;20013;-80
2022/05/17 10:54:31;;;;;;;10.43;4.07;;;;;;;27.39;41.21;101873.75;6403922;23;20005;-80
2022/05/17 10:57:05;;;;;;;8.55;3.97;;;;;;;27.16;41.08;101869.94;6405392;23;20005;-79
2022/05/17 10:59:44;;;;;;;9.70;4.05;;;;;;;27.67;41.20;101879.94;6404395;23;20414;-80
2022/05/17 11:02:39;;;;;;;15.55;4.55;;;;;;;28.00;39.45;101870.59;6403815;23;20005;-81
2022/05/17 11:05:35;;;;;;;10.68;5.20;;;;;;;27.78;39.09;101868.50;6406473;23;20005;-80
2022/05/17 11:08:13;;;;;;;10.75;4.15;;;;;;;28.35;38.08;101867.22;6403755;23;20009;-79
2022/05/17 11:10:50;;;;;;;9.85;5.07;;;;;;;29.28;35.38;101859.56;6404312;23;20062;-80
2022/05/17 11:13:29;;;;;;;8.82;4.18;;;;;;;30.53;34.45;101851.75;6402954;23;20005;-81
2022/05/17 11:16:09;;;;;;;10.52;4.68;;;;;;;31.46;34.88;101853.06;6402847;23;20017;-80
2022/05/17 11:18:48;;;;;;;10.65;4.47;;;;;;;31.76;31.81;101846.06;6402788;23;20013;-80
2022/05/17 11:21:26;;;;;;;11.60;4.88;;;;;;;31.51;32.09;101841.88;6402833;23;20033;-79
2022/05/17 11:24:34;;;;;;;9.85;4.82;;;;;;;32.09;33.85;101831.50;6404495;23;20334;-79
2022/05/17 11:27:16;;;;;;;10.73;4.60;;;;;;;31.95;30.18;101829.97;6404939;23;20419;-80
2022/05/17 11:30:14;;;;;;;9.63;5.00;;;;;;;32.47;31.49;101826.38;6403567;23;20432;-80
2022/05/17 11:33:29;;;;;;;13.13;4.50;;;;;;;32.06;31.42;101820.94;6403929;23;20416;-79
2022/05/17 11:36:29;;;;;;;9.23;4.32;;;;;;;32.35;30.89;101815.69;6402136;23;20009;-79
2022/05/17 11:39:02;;;;;;;8.63;4.97;;;;;;;33.49;30.23;101819.78;6403568;23;20017;-80
2022/05/17 11:41:33;;;;;;;8.00;3.88;;;;;;;34.04;27.93;101817.22;6402704;23;20156;-80
2022/05/17 11:44:07;;;;;;;9.23;4.23;;;;;;;34.44;26.11;101802.53;6404333;23;20040;-80
2022/05/17 11:46:54;;;;;;;7.63;3.88;;;;;;;34.68;25.52;101804.63;6404601;23;20241;-82
2022/05/17 11:49:41;;;;;;;7.72;3.67;;;;;;;35.38;25.81;101803.94;6377706;23;20013;-80
2022/05/17 11:52:19;;;;;;;10.35;3.67;;;;;;;36.04;24.81;101790.75;6403553;23;20008;-80
2022/05/17 11:54:53;;;;;;;10.65;3.97;;;;;;;35.52;24.55;101793.50;6403838;23;20006;-80
2022/05/17 11:57:24;;;;;;;7.82;3.75;;;;;;;35.90;26.39;101789.50;6403461;23;20047;-80
2022/05/17 12:00:04;;;;;;;8.67;3.87;;;;;;;36.26;24.70;101777.63;6409223;23;20029;-80
2022/05/17 12:02:48;;;;;;;9.48;3.88;;;;;;;36.61;23.86;101773.78;6403388;23;20320;-79
2022/05/17 12:05:38;;;;;;;12.95;3.33;;;;;;;37.39;23.99;101775.19;6404455;23;20018;-81
2022/05/17 12:08:46;;;;;;;8.45;2.88;;;;;;;37.76;22.68;101771.06;6403429;23;20006;-81
2022/05/17 12:11:26;;;;;;;6.75;3.17;;;;;;;37.95;22.04;101771.66;6404267;23;20572;-80